Accueil
METAR-TAF:

METAR-TAF

Aéroports :

Aéroport Santander Seve Ballesteros

Santander, Espagne

latitude: 43-26N, longitude: 003-49W, altitude: 6 m

Observation

Le bulletin a été fait il y a 32 minutes, à 02:00 UTC
Vent 1 kt de direction variable
Température 14°C
Humidité 94%
Pression 1017 hPa
Visibilité: 9000 m

METAR: LEXJ 020200Z AUTO VRB01KT 9000 NCD 14/13 Q1017

Heure: 04:32 (02:32 UTC)

Prévision

Le bulletin a été fait il y a 6 heures et 32 minutes, à 20:00 UTC
Prévision valable du 01 à 21 UTC au 02 à 21 UTC
Vent 7 kt de sud-ouest
Visibilité 10 km ou plus
Nuages épars à une hauteur de 2000 ft
Probabilité 30% :
Temporairement
du 02 à 04 UTC au 02 à 06 UTC
Nuages fragmentés à une hauteur de 1400 ft
Probabilité 30% :
Temporairement
du 02 à 11 UTC au 02 à 17 UTC
Vent 10 kt de nord/nord-est

TAF: LEXJ 012000Z 0121/0221 22007KT 9999 SCT020 TX23/0214Z TN12/0205Z PROB30 TEMPO 0204/0206 BKN014 PROB30 TEMPO 0211/0217 02010KT

Observations et prévisions météorologiques de plus de 4000 aéroports (messages METAR et TAF).

Les stations disponibles sont représentées par des disques jaunes et rouges sur la carte.

Passer la souris dessus pour voir le nom de la station.

Cliquer dessus pour voir les observations et prévisions météorologiques.

Pour changer de carte: cliquez sur les boutons verts avec une croix noire pour zoomer, sur le bouton vert avec un tiret pour effectuer un zoom arrière, ou sur les flèches vertes pour les cartes adjacentes.


METAR-TAF: